PWSweather.com
Personal Weather Stations
Station Observations
WIKENOS15
47th Ave & 30th St, Kenosha, WI 53144

47th Ave & 30th StKenosha, WI 53144

Lat: 42.612, Lon: -87.866

Elevation: 697

Station Type: Oregon Scientific 100N

Latest ConditionsUpdated 8:45:00 AM CST Sunday, Feb 7, 2016
Currently Today's Max Today's Min Today's Average
Temperature 39.0°F3.9°C 39.0°F3.9°C 32.8°F0.4°C 36.5°F2.5°C
Dew Point 31.4°F-0.3°C 31.7°F-0.2°C 29.4°F-1.4°C 30.7°F-0.7°C
Winds 2.6 mph SW4.2 kmh SW 5.3 mph SW8.5 kmh SW - 3.3 mph 5.3 kmh
Wind Gusts 6.0 mph9.7 kmh 9.8 mph15.8 kmh - -
Humidity 74% 87% 73% 79%
Pressure 29.76 in1007.8 mb 30.02 in1016.6 mb 29.76 in1007.8 mb -
Hour Temp Dew Point Humidity Winds Wind Gusts Pressure Precip Precip Rate Daily Precip Total
08:45 AM 39.0°F3.9°C 31.4°F-0.3°C 74% 2.6 mph SW4.2 kmh SW 6.0 mph9.7 kmh 29.76 in1007.8 mb - 0.00 in0.0 mm 0.00 in0.0 mm
08:30 AM 38.8°F3.8°C 30.9°F-0.6°C 73% 3.9 mph SW6.3 kmh SW 4.5 mph7.2 kmh 29.76 in1007.8 mb - 0.00 in0.0 mm 0.00 in0.0 mm
08:15 AM 38.7°F3.7°C 31.1°F-0.5°C 74% 4.6 mph SW7.4 kmh SW 6.8 mph10.9 kmh 29.77 in1008.1 mb - 0.00 in0.0 mm 0.00 in0.0 mm
08:00 AM 38.9°F3.8°C 31.0°F-0.6°C 73% 4.9 mph SW7.9 kmh SW 6.8 mph10.9 kmh 29.77 in1008.1 mb - 0.00 in0.0 mm 0.00 in0.0 mm
07:45 AM 38.7°F3.7°C 30.8°F-0.7°C 73% 3.1 mph SW5.0 kmh SW 7.5 mph12.1 kmh 29.78 in1008.5 mb - 0.00 in0.0 mm 0.00 in0.0 mm
07:30 AM 38.3°F3.5°C 30.8°F-0.7°C 74% 2.6 mph SW4.2 kmh SW 5.2 mph8.4 kmh 29.79 in1008.8 mb - 0.00 in0.0 mm 0.00 in0.0 mm
07:15 AM 38.0°F3.3°C 30.8°F-0.7°C 75% 3.9 mph SW6.3 kmh SW 5.2 mph8.4 kmh 29.80 in1009.1 mb - 0.00 in0.0 mm 0.00 in0.0 mm
07:00 AM 37.5°F3.1°C 30.9°F-0.6°C 77% 2.9 mph SSW4.7 kmh SSW 5.2 mph8.4 kmh 29.80 in1009.1 mb - 0.00 in0.0 mm 0.00 in0.0 mm
06:45 AM 37.1°F2.8°C 30.9°F-0.6°C 78% 3.2 mph SW5.1 kmh SW 4.5 mph7.2 kmh 29.81 in1009.5 mb - 0.00 in0.0 mm 0.00 in0.0 mm
06:30 AM 36.8°F2.7°C 30.9°F-0.6°C 79% 3.3 mph SW5.3 kmh SW 6.0 mph9.7 kmh 29.81 in1009.5 mb - 0.00 in0.0 mm 0.00 in0.0 mm
06:15 AM 36.7°F2.6°C 30.8°F-0.7°C 79% 3.8 mph S6.1 kmh S 5.2 mph8.4 kmh 29.82 in1009.8 mb - 0.00 in0.0 mm 0.00 in0.0 mm
06:00 AM 36.8°F2.7°C 30.9°F-0.6°C 79% 3.0 mph SW4.8 kmh SW 3.7 mph6.0 kmh 29.83 in1010.2 mb - 0.00 in0.0 mm 0.00 in0.0 mm
05:45 AM 37.0°F2.8°C 31.0°F-0.6°C 79% 3.4 mph SW5.5 kmh SW 6.0 mph9.7 kmh 29.83 in1010.2 mb - 0.00 in0.0 mm 0.00 in0.0 mm
05:30 AM 37.1°F2.8°C 31.2°F-0.4°C 79% 5.3 mph SW8.5 kmh SW 7.5 mph12.1 kmh 29.84 in1010.5 mb - 0.00 in0.0 mm 0.00 in0.0 mm
05:15 AM 37.1°F2.8°C 31.2°F-0.4°C 79% 3.5 mph SW5.6 kmh SW 4.5 mph7.2 kmh 29.84 in1010.5 mb - 0.00 in0.0 mm 0.00 in0.0 mm
05:00 AM 37.6°F3.1°C 31.4°F-0.3°C 78% 5.1 mph SSW8.2 kmh SSW 7.5 mph12.1 kmh 29.85 in1010.8 mb - 0.00 in0.0 mm 0.00 in0.0 mm
04:45 AM 37.7°F3.2°C 31.5°F-0.3°C 78% 4.0 mph SW6.4 kmh SW 6.8 mph10.9 kmh 29.86 in1011.2 mb - 0.00 in0.0 mm 0.00 in0.0 mm
04:30 AM 37.9°F3.3°C 31.7°F-0.2°C 78% 5.2 mph S8.4 kmh S 9.8 mph15.8 kmh 29.86 in1011.2 mb - 0.00 in0.0 mm 0.00 in0.0 mm
04:15 AM 37.8°F3.2°C 31.6°F-0.2°C 78% 4.4 mph SW7.1 kmh SW 6.0 mph9.7 kmh 29.87 in1011.5 mb - 0.00 in0.0 mm 0.00 in0.0 mm
04:00 AM 37.0°F2.8°C 31.1°F-0.5°C 79% 2.7 mph S4.3 kmh S 6.0 mph9.7 kmh 29.88 in1011.9 mb - 0.00 in0.0 mm 0.00 in0.0 mm
03:45 AM 37.1°F2.8°C 31.2°F-0.4°C 79% 3.8 mph SW6.1 kmh SW 6.8 mph10.9 kmh 29.89 in1012.2 mb - 0.00 in0.0 mm 0.00 in0.0 mm
03:30 AM 36.7°F2.6°C 31.1°F-0.5°C 80% 2.3 mph SSW3.7 kmh SSW 6.0 mph9.7 kmh 29.90 in1012.5 mb - 0.00 in0.0 mm 0.00 in0.0 mm
03:15 AM 36.8°F2.7°C 30.9°F-0.6°C 79% 4.5 mph SW7.2 kmh SW 7.5 mph12.1 kmh 29.91 in1012.9 mb - 0.00 in0.0 mm 0.00 in0.0 mm
03:00 AM 36.6°F2.6°C 31.0°F-0.6°C 80% 3.6 mph SW5.8 kmh SW 5.2 mph8.4 kmh 29.93 in1013.5 mb - 0.00 in0.0 mm 0.00 in0.0 mm
02:45 AM 36.6°F2.6°C 30.7°F-0.7°C 79% 3.7 mph SSW6.0 kmh SSW 6.8 mph10.9 kmh 29.94 in1013.9 mb - 0.00 in0.0 mm 0.00 in0.0 mm
02:30 AM 36.4°F2.4°C 30.8°F-0.7°C 80% 3.9 mph SW6.3 kmh SW 4.5 mph7.2 kmh 29.95 in1014.2 mb - 0.00 in0.0 mm 0.00 in0.0 mm
02:15 AM 35.9°F2.2°C 30.7°F-0.7°C 81% 2.4 mph SSW3.9 kmh SSW 3.7 mph6.0 kmh 29.96 in1014.6 mb - 0.00 in0.0 mm 0.00 in0.0 mm
02:00 AM 35.4°F1.9°C 30.4°F-0.9°C 82% 3.0 mph SW4.8 kmh SW 3.7 mph6.0 kmh 29.97 in1014.9 mb - 0.00 in0.0 mm 0.00 in0.0 mm
01:45 AM 34.6°F1.4°C 30.0°F-1.1°C 83% 1.8 mph SSW2.9 kmh SSW 3.7 mph6.0 kmh 29.98 in1015.2 mb - 0.00 in0.0 mm 0.00 in0.0 mm
01:30 AM 34.1°F1.2°C 30.1°F-1.1°C 85% 2.5 mph SW4.0 kmh SW 3.7 mph6.0 kmh 29.99 in1015.6 mb - 0.00 in0.0 mm 0.00 in0.0 mm
01:15 AM 34.0°F1.1°C 29.9°F-1.2°C 85% 2.6 mph SW4.2 kmh SW 3.7 mph6.0 kmh 29.99 in1015.6 mb - 0.00 in0.0 mm 0.00 in0.0 mm
01:00 AM 33.7°F0.9°C 29.7°F-1.3°C 85% 2.5 mph SSW4.0 kmh SSW 4.5 mph7.2 kmh 30.00 in1015.9 mb - 0.00 in0.0 mm 0.00 in0.0 mm
12:45 AM 33.6°F0.9°C 29.9°F-1.2°C 86% 1.9 mph SSW3.1 kmh SSW 2.3 mph3.7 kmh 30.01 in1016.3 mb - 0.00 in0.0 mm 0.00 in0.0 mm
12:30 AM 33.4°F0.8°C 29.7°F-1.3°C 86% 2.1 mph SW3.4 kmh SW 3.7 mph6.0 kmh 30.01 in1016.3 mb - 0.00 in0.0 mm 0.00 in0.0 mm
12:15 AM 33.1°F0.6°C 29.4°F-1.4°C 86% 2.1 mph SSW3.4 kmh SSW 2.3 mph3.7 kmh 30.01 in1016.3 mb - 0.00 in0.0 mm 0.00 in0.0 mm
12:00 AM 32.8°F0.4°C 29.4°F-1.4°C 87% 1.3 mph WSW2.1 kmh WSW 2.3 mph3.7 kmh 30.02 in1016.6 mb - 0.00 in0.0 mm 0.00 in0.0 mm